F/V Chelsea Dawn — WAQ7956 — position and weather

sailwx.info

Track history (hours):
 
Tides and Currents Weather Stations Pressure Air Temp Water Temp Dewpoint Dewpoint Depression Visibility Wind Speed Wind Dir Waves Ship Positions

F/V Chelsea Dawn

Owner: YOUNG, MARK N, SITKA, AK. More information available from US FCC via Universal Licensing System and Coast Guard Vessel Documentation Center.

Last reported at 2018-Mar-17 15:48 UTC. Time now 2018-Jun-22 20:35 UTC.
Position N 54°19' W 130°55'.
Warning: this ship's position is months out of date.

Length 15 m.

Type: Fishing. MMSI: 367076240.

Date/timePositionNaut miles runAvg speedWind from/ knotsBaromVisibWave heightAir tempDewpointWater temp
2018-Mar-17 15:48N 54°19' W 130°55'3 9.1
2018-Mar-17 15:30N 54°17' W 130°50'4 8.9
2018-Mar-17 15:00N 54°15' W 130°44'4 8.8
2018-Mar-17 14:30N 54°12' W 130°38'4 8.9
2018-Mar-17 14:00N 54°10' W 130°32'4 9.0
2018-Mar-17 13:30N 54°08' W 130°25'5 9.1
2018-Mar-17 13:00N 54°05' W 130°19'4 8.8
2018-Mar-17 12:30N 54°02' W 130°14'4 8.6
2018-Mar-17 12:00N 53°57' W 130°12'4 8.3
2018-Mar-17 11:30N 53°54' W 130°08'131 7.7
2018-Mar-16 18:29N 52°05' W 128°06'9 6.6
2018-Mar-16 17:08N 51°59' W 127°56'1 8.9
2018-Mar-16 16:59N 51°58' W 127°56'5 8.9
2018-Mar-16 16:28N 51°53' W 127°57'4 8.8
2018-Mar-16 16:00N 51°49' W 127°57'5 8.8
2018-Mar-16 15:29N 51°44' W 127°57'4 9.0
2018-Mar-16 15:00N 51°40' W 127°55'4 8.9
2018-Mar-16 14:30N 51°36' W 127°54'29 8.5
2018-Mar-16 11:07N 51°07' W 127°47'2 9.1
2018-Mar-16 10:57N 51°06' W 127°45'8 8.9
2018-Mar-16 10:04N 51°01' W 127°36'1 8.6
2018-Mar-16 10:00N 51°01' W 127°35'4 8.6
2018-Mar-16 09:30N 50°58' W 127°30'4 8.4
2018-Mar-16 08:59N 50°55' W 127°25'4 8.3
2018-Mar-16 08:30N 50°53' W 127°19'5 8.3
2018-Mar-16 07:56N 50°50' W 127°13'79 8.4
2018-Mar-15 22:37N 50°14' W 125°23'1 8.4
2018-Mar-15 22:29N 50°13' W 125°23'4 8.2
2018-Mar-15 22:00N 50°09' W 125°22'2 3.5
2018-Mar-15 21:29N 50°08' W 125°21'2 3.6
2018-Mar-15 21:00N 50°07' W 125°19'3 5.2
2018-Mar-15 20:30N 50°05' W 125°16'2 4.6
2018-Mar-15 20:00N 50°03' W 125°14'3 6.2
2018-Mar-15 19:27N 49°60' W 125°12'5 8.8
2018-Mar-15 18:54N 49°56' W 125°07'4 8.8
2018-Mar-15 18:25N 49°53' W 125°02'3 6.4
2018-Mar-15 17:59N 49°51' W 124°59'4 8.6
2018-Mar-15 17:30N 49°48' W 124°55'5 9.3
2018-Mar-15 16:58N 49°45' W 124°49'73 8.8
2018-Mar-15 08:42N 48°54' W 123°28'2 9.4
2018-Mar-15 08:30N 48°53' W 123°26'5 9.2
2018-Mar-15 07:59N 48°50' W 123°21'5 9.7
2018-Mar-15 07:28N 48°45' W 123°19'5 9.4
2018-Mar-15 06:59N 48°41' W 123°16'11 7.6
2018-Mar-15 05:31N 48°31' W 123°10'2 6.5
2018-Mar-15 05:10N 48°29' W 123°08'40 9.6
2018-Mar-15 00:59N 47°57' W 122°32'4 9.2
2018-Mar-15 00:30N 47°53' W 122°28'5 9.4
2018-Mar-15 00:00N 47°48' W 122°27'5 9.5
2018-Mar-14 23:30N 47°44' W 122°26'4 7.9
2018-Mar-14 23:00N 47°40' W 122°24'1 1.5
2018-Mar-14 22:30N 47°39' W 122°23'0 0.0
2018-Mar-14 22:00N 47°39' W 122°23'0 0.0
2018-Mar-14 21:30N 47°39' W 122°23'0 0.0
2018-Mar-14 20:59N 47°39' W 122°23'0 0.0
2018-Mar-14 20:29N 47°39' W 122°23'0 0.0
2018-Mar-14 20:00N 47°39' W 122°23'0 0.0
2018-Mar-14 19:30N 47°39' W 122°23'0 0.0
2018-Mar-14 19:00N 47°39' W 122°23'0 0.0
2018-Mar-14 18:29N 47°39' W 122°23'0 0.0
2018-Mar-14 18:00N 47°39' W 122°23'0 0.0
2018-Mar-14 17:30N 47°39' W 122°23'0 0.0
2018-Mar-14 16:59N 47°39' W 122°23'0 0.0
2018-Mar-14 16:30N 47°39' W 122°23'0 0.0
2018-Mar-14 15:56N 47°39' W 122°23'0 0.0
2018-Mar-14 15:29N 47°39' W 122°23'0 0.0
2018-Mar-14 15:00N 47°39' W 122°23'0 0.0
2018-Mar-14 14:29N 47°39' W 122°23'0 0.0
2018-Mar-14 14:00N 47°39' W 122°23'0 0.0
2018-Mar-14 13:30N 47°39' W 122°23'0 0.0
2018-Mar-14 12:59N 47°39' W 122°23'0 0.0
2018-Mar-14 12:29N 47°39' W 122°23'0 0.0
2018-Mar-14 11:57N 47°39' W 122°23'0 0.0
2018-Mar-14 11:30N 47°39' W 122°23'0 0.0
2018-Mar-14 10:56N 47°39' W 122°23'0 0.0
2018-Mar-14 10:30N 47°39' W 122°23'0 0.0
2018-Mar-14 09:59N 47°39' W 122°23'0 0.0
2018-Mar-14 09:29N 47°39' W 122°23'0 0.0
2018-Mar-14 08:53N 47°39' W 122°23'0 0.0
2018-Mar-14 08:30N 47°39' W 122°23'0 0.0
2018-Mar-14 08:00N 47°39' W 122°23'0 0.0
2018-Mar-14 07:29N 47°39' W 122°23'0 0.0
2018-Mar-14 06:57N 47°39' W 122°23'0 0.0
2018-Mar-14 06:27N 47°39' W 122°23'0 0.0
2018-Mar-14 06:00N 47°39' W 122°23'0 0.0
2018-Mar-14 05:29N 47°39' W 122°23'0 0.0
2018-Mar-14 05:00N 47°39' W 122°23'0 0.0
2018-Mar-14 04:30N 47°39' W 122°23'0 0.0
2018-Mar-14 04:00N 47°39' W 122°23'0 0.0
2018-Mar-14 03:30N 47°39' W 122°23'0 0.0
2018-Mar-14 03:00N 47°39' W 122°23'0 0.0
2018-Mar-14 02:29N 47°39' W 122°23'0 0.0
2018-Mar-14 01:59N 47°39' W 122°23'0 0.0
2018-Mar-14 01:30N 47°39' W 122°23'0 0.0
2018-Mar-14 01:00N 47°39' W 122°23'0 0.0
2018-Mar-14 00:30N 47°39' W 122°23'0 0.0
2018-Mar-14 00:00N 47°39' W 122°23'0 0.0
2018-Mar-13 23:30N 47°39' W 122°23'0 0.0
2018-Mar-13 23:00N 47°39' W 122°23'0 0.0
2018-Mar-13 22:30N 47°39' W 122°23'0 0.0
2018-Mar-13 22:00N 47°39' W 122°23'0 0.0
2018-Mar-13 21:30N 47°39' W 122°23'0 0.0
2018-Mar-13 20:57N 47°39' W 122°23'0 0.0
2018-Mar-13 20:29N 47°39' W 122°23'0 0.0
2018-Mar-13 20:00N 47°39' W 122°23'0 0.0
2018-Mar-13 19:30N 47°39' W 122°23'0 0.0
2018-Mar-13 18:59N 47°39' W 122°23'0 0.0
2018-Mar-13 18:30N 47°39' W 122°23'0 0.0
2018-Mar-13 18:00N 47°39' W 122°23'0 0.0
2018-Mar-13 17:29N 47°39' W 122°23'0 0.0
2018-Mar-13 17:00N 47°39' W 122°23'0 0.0
2018-Mar-13 16:30N 47°39' W 122°23'0 0.0
2018-Mar-13 16:00N 47°39' W 122°23'0 0.0
2018-Mar-13 15:30N 47°39' W 122°23'0 0.0
2018-Mar-13 14:59N 47°39' W 122°23'0 0.0
2018-Mar-13 14:29N 47°39' W 122°23'0 0.0
2018-Mar-13 13:59N 47°39' W 122°23'0 0.0
2018-Mar-13 13:30N 47°39' W 122°23'0 0.0
2018-Mar-13 12:57N 47°39' W 122°23'0 0.0
2018-Mar-13 12:30N 47°39' W 122°23'0 0.0
2018-Mar-13 12:00N 47°39' W 122°23'0 0.0
2018-Mar-13 11:30N 47°39' W 122°23'0 0.0
2018-Mar-13 11:00N 47°39' W 122°23'0 0.0
2018-Mar-13 10:29N 47°39' W 122°23'0 0.0
2018-Mar-13 09:59N 47°39' W 122°23'0 0.0
2018-Mar-13 09:30N 47°39' W 122°23'0 0.0
2018-Mar-13 09:00N 47°39' W 122°23'0 0.0
2018-Mar-13 08:30N 47°39' W 122°23'0 0.0
2018-Mar-13 07:56N 47°39' W 122°23'0 0.0
2018-Mar-13 07:30N 47°39' W 122°23'0 0.0
2018-Mar-13 06:56N 47°39' W 122°23'0 0.0
2018-Mar-13 06:30N 47°39' W 122°23'0 0.0
2018-Mar-13 05:59N 47°39' W 122°23'0 0.0
2018-Mar-13 05:29N 47°39' W 122°23'0 0.0
2018-Mar-13 04:56N 47°39' W 122°23'0 0.0
2018-Mar-13 04:30N 47°39' W 122°23'0 0.0
2018-Mar-13 04:00N 47°39' W 122°23'0 0.0
2018-Mar-13 03:30N 47°39' W 122°23'0 0.0
2018-Mar-13 03:00N 47°39' W 122°23'0 0.0
2018-Mar-13 02:29N 47°39' W 122°23'0 0.0
2018-Mar-13 02:00N 47°39' W 122°23'0 0.0
2018-Mar-13 01:29N 47°39' W 122°23'0 0.0
2018-Mar-13 01:00N 47°39' W 122°23'0 0.0
2018-Mar-13 00:30N 47°39' W 122°23'0 0.0
2018-Mar-13 00:00N 47°39' W 122°23'0 0.0
2018-Mar-12 23:29N 47°39' W 122°23'0 0.0
2018-Mar-12 23:00N 47°39' W 122°23'0 0.0
2018-Mar-12 22:30N 47°39' W 122°23'0 0.0
2018-Mar-12 22:00N 47°39' W 122°23'0 0.0
2018-Mar-12 21:30N 47°39' W 122°23'0 0.0
2018-Mar-12 21:00N 47°39' W 122°23'0 0.0
2018-Mar-12 20:30N 47°39' W 122°23'0 0.0
2018-Mar-12 19:59N 47°39' W 122°23'0 0.0
2018-Mar-12 19:30N 47°39' W 122°23'0 0.0
2018-Mar-12 19:00N 47°39' W 122°23'0 0.0
2018-Mar-12 18:26N 47°39' W 122°23'0 0.0
2018-Mar-12 17:56N 47°39' W 122°23'0 0.0
2018-Mar-12 17:29N 47°39' W 122°23'0 0.0
2018-Mar-12 16:59N 47°39' W 122°23'0 0.0
2018-Mar-12 16:29N 47°39' W 122°23'0 0.0
2018-Mar-12 16:00N 47°39' W 122°23'0 0.2
2018-Mar-12 15:30N 47°39' W 122°23'0 0.0
2018-Mar-12 15:00N 47°39' W 122°23'0 0.0
2018-Mar-12 14:30N 47°39' W 122°23'0 0.0
2018-Mar-12 14:00N 47°39' W 122°23'0 0.0
2018-Mar-12 13:30N 47°39' W 122°23'0 0.0
2018-Mar-12 13:00N 47°39' W 122°23'0 0.0
2018-Mar-12 12:30N 47°39' W 122°23'0 0.0
2018-Mar-12 12:00N 47°39' W 122°23'0 0.0
2018-Mar-12 11:30N 47°39' W 122°23'0 0.0
2018-Mar-12 11:00N 47°39' W 122°23'0 0.1
2018-Mar-12 10:27N 47°39' W 122°23'0 0.1
2018-Mar-12 10:00N 47°39' W 122°23'0 0.0
2018-Mar-12 09:30N 47°39' W 122°23'0 0.1
2018-Mar-12 09:00N 47°39' W 122°23'0 0.0
2018-Mar-12 08:30N 47°39' W 122°23'0 0.0
2018-Mar-12 08:00N 47°39' W 122°23'0 0.0
2018-Mar-12 07:30N 47°39' W 122°23'0 0.1
2018-Mar-12 07:00N 47°39' W 122°23'0 0.1
2018-Mar-12 06:30N 47°39' W 122°23'0 0.0
2018-Mar-12 06:00N 47°39' W 122°23'0 0.1
2018-Mar-12 05:30N 47°39' W 122°23'0 0.1
2018-Mar-12 05:00N 47°39' W 122°23'0 0.0
2018-Mar-12 04:30N 47°39' W 122°23'0 0.1
2018-Mar-12 04:00N 47°39' W 122°23'0 0.0
2018-Mar-12 03:27N 47°39' W 122°23'0 0.0
2018-Mar-12 03:00N 47°39' W 122°23'0 0.0
2018-Mar-12 02:30N 47°39' W 122°23'0 0.1
2018-Mar-12 02:00N 47°39' W 122°23'0 0.1
2018-Mar-12 01:30N 47°39' W 122°23'0 0.0
2018-Mar-12 01:00N 47°39' W 122°23'0 0.0
2018-Mar-12 00:30N 47°39' W 122°23'0 0.0
2018-Mar-12 00:00N 47°39' W 122°23'0 0.1
2018-Mar-11 23:30N 47°39' W 122°23'0 0.0
2018-Mar-11 23:00N 47°39' W 122°23'0 0.1
2018-Mar-11 22:30N 47°39' W 122°23'0 0.0
2018-Mar-11 22:00N 47°39' W 122°23'0 0.1
2018-Mar-11 21:30N 47°39' W 122°23'0 0.1
2018-Mar-11 21:00N 47°39' W 122°23'0 0.1
2018-Mar-11 20:30N 47°39' W 122°23'0 0.0
2018-Mar-11 20:00N 47°39' W 122°23'0 0.1
2018-Mar-11 19:30N 47°39' W 122°23'0 0.1
2018-Mar-11 19:00N 47°39' W 122°23'0 0.1
2018-Mar-11 18:30N 47°39' W 122°23'0 0.1
2018-Mar-11 18:00N 47°39' W 122°23'0 0.1
2018-Mar-11 17:30N 47°39' W 122°23'0 0.0
2018-Mar-11 17:00N 47°39' W 122°23'0 0.1
2018-Mar-11 16:30N 47°39' W 122°23'0 0.0
2018-Mar-11 16:00N 47°39' W 122°23'0 0.1
2018-Mar-11 15:27N 47°39' W 122°23'0 0.0
2018-Mar-11 15:00N 47°39' W 122°23'0 0.0
2018-Mar-11 14:30N 47°39' W 122°23'0 0.0
2018-Mar-11 13:57N 47°39' W 122°23'0 0.0
2018-Mar-11 13:27N 47°39' W 122°23'0 0.1
2018-Mar-11 13:00N 47°39' W 122°23'0 0.1
2018-Mar-11 12:30N 47°39' W 122°23'0 0.0
2018-Mar-11 12:00N 47°39' W 122°23'0 0.0
2018-Mar-11 11:27N 47°39' W 122°23'0 0.0
2018-Mar-11 11:00N 47°39' W 122°23'0 0.0
2018-Mar-11 10:30N 47°39' W 122°23'0 0.0
2018-Mar-11 10:00N 47°39' W 122°23'0 0.0
2018-Mar-11 09:30N 47°39' W 122°23'0 0.1
2018-Mar-11 09:00N 47°39' W 122°23'0 0.0
2018-Mar-11 08:30N 47°39' W 122°23'0 0.1
2018-Mar-11 07:54N 47°39' W 122°23'0 0.0
2018-Mar-11 07:27N 47°39' W 122°23'0 0.0
2018-Mar-11 07:00N 47°39' W 122°23'0 0.1
2018-Mar-11 06:27N 47°39' W 122°23'0 0.1
2018-Mar-11 05:57N 47°39' W 122°23'0 0.1
2018-Mar-11 05:30N 47°39' W 122°23'0 0.1
2018-Mar-11 05:00N 47°39' W 122°23'0 0.0
2018-Mar-11 04:30N 47°39' W 122°23'0 0.0
2018-Mar-11 04:00N 47°39' W 122°23'0 0.0
2018-Mar-11 03:30N 47°39' W 122°23'0 0.1
2018-Mar-11 03:00N 47°39' W 122°23'0 0.1
2018-Mar-11 02:30N 47°39' W 122°23'0 0.0
2018-Mar-11 02:00N 47°39' W 122°23'0 0.0
2018-Mar-11 01:30N 47°39' W 122°23'0 0.0
2018-Mar-11 00:57N 47°39' W 122°23'0 0.0
2018-Mar-11 00:30N 47°39' W 122°23'0 0.0
2018-Mar-11 00:00N 47°39' W 122°23'0 0.1
2018-Mar-10 23:27N 47°39' W 122°23'0 0.0
2018-Mar-10 23:00N 47°39' W 122°23'0 0.1
2018-Mar-10 22:30N 47°39' W 122°23'0 0.0
2018-Mar-10 22:00N 47°39' W 122°23'0 0.1
2018-Mar-10 21:30N 47°39' W 122°23'0 0.0
2018-Mar-10 21:00N 47°39' W 122°23'0 0.1
2018-Mar-10 20:30N 47°39' W 122°23'0 0.1
2018-Mar-10 20:00N 47°39' W 122°23'0 0.1
2018-Mar-10 19:30N 47°39' W 122°23'0 0.0
2018-Mar-10 18:57N 47°39' W 122°23'0 0.0
2018-Mar-10 18:24N 47°39' W 122°23'0 0.0
2018-Mar-10 18:00N 47°39' W 122°23'0 0.1
2018-Mar-10 17:30N 47°39' W 122°23'0 0.1
2018-Mar-10 16:54N 47°39' W 122°23'0 0.0
2018-Mar-10 16:30N 47°39' W 122°23'0 0.0
2018-Mar-10 16:00N 47°39' W 122°23'0 0.1
2018-Mar-10 15:27N 47°39' W 122°23'0 0.1
2018-Mar-10 15:00N 47°39' W 122°23'0 0.0
2018-Mar-10 14:30N 47°39' W 122°23'0 0.0
2018-Mar-10 14:00N 47°39' W 122°23'0 0.0
2018-Mar-10 13:27N 47°39' W 122°23'0 0.1
2018-Mar-10 13:00N 47°39' W 122°23'0 0.0
2018-Mar-10 12:27N 47°39' W 122°23'0 0.1
2018-Mar-10 12:00N 47°39' W 122°23'0 0.0
2018-Mar-10 11:30N 47°39' W 122°23'0 0.1
2018-Mar-10 11:00N 47°39' W 122°23'0 0.1
2018-Mar-10 10:30N 47°39' W 122°23'0 0.0
2018-Mar-10 10:00N 47°39' W 122°23'0 0.1
2018-Mar-10 09:30N 47°39' W 122°23'0 0.0
2018-Mar-10 09:00N 47°39' W 122°23'0 0.0
2018-Mar-10 08:30N 47°39' W 122°23'0 0.1
2018-Mar-10 08:00N 47°39' W 122°23'0 0.0
2018-Mar-10 07:30N 47°39' W 122°23'0 0.0
2018-Mar-10 07:00N 47°39' W 122°23'0 0.1
2018-Mar-10 06:30N 47°39' W 122°23'0 0.1
2018-Mar-10 06:00N 47°39' W 122°23'0 0.1
2018-Mar-10 05:30N 47°39' W 122°23'0 0.1
2018-Mar-10 05:00N 47°39' W 122°23'0 0.0
2018-Mar-10 04:30N 47°39' W 122°23'0 0.1
2018-Mar-10 04:00N 47°39' W 122°23'0 0.1
2018-Mar-10 03:30N 47°39' W 122°23'0 0.0
2018-Mar-10 03:00N 47°39' W 122°23'0 0.0
2018-Mar-10 02:27N 47°39' W 122°23'0 0.0
2018-Mar-10 02:00N 47°39' W 122°23'0 0.0
2018-Mar-10 01:30N 47°39' W 122°23'0 0.0
2018-Mar-10 01:00N 47°39' W 122°23'0 0.0
2018-Mar-10 00:30N 47°39' W 122°23'0 0.1
2018-Mar-10 00:00N 47°39' W 122°23'0 0.1
2018-Mar-09 23:30N 47°39' W 122°23'0 0.1
2018-Mar-09 23:00N 47°39' W 122°23'0 0.1
2018-Mar-09 22:30N 47°39' W 122°23'0 0.0
2018-Mar-09 22:00N 47°39' W 122°23'0 0.0
2018-Mar-09 21:30N 47°39' W 122°23'0 0.1
2018-Mar-09 21:00N 47°39' W 122°23'0 0.0
2018-Mar-09 20:30N 47°39' W 122°23'0 0.1
2018-Mar-09 20:00N 47°39' W 122°23'0 0.0
2018-Mar-09 19:30N 47°39' W 122°23'0 0.0
2018-Mar-09 19:00N 47°39' W 122°23'0 0.1
2018-Mar-09 18:30N 47°39' W 122°23'0 0.0
2018-Mar-09 18:00N 47°39' W 122°23'0 0.1
2018-Mar-09 17:27N 47°39' W 122°23'0 0.0
2018-Mar-09 17:00N 47°39' W 122°23'0 0.1
2018-Mar-09 16:30N 47°39' W 122°23'0 0.1
2018-Mar-09 16:00N 47°39' W 122°23'0 0.0
2018-Mar-09 15:30N 47°39' W 122°23'0 0.0
2018-Mar-09 14:57N 47°39' W 122°23'0 0.0
2018-Mar-09 14:30N 47°39' W 122°23'0 0.0
2018-Mar-09 13:57N 47°39' W 122°23'0 0.0
2018-Mar-09 13:30N 47°39' W 122°23'0 0.0
2018-Mar-09 13:00N 47°39' W 122°23'0 0.0
2018-Mar-09 12:30N 47°39' W 122°23'0 0.0
2018-Mar-09 12:00N 47°39' W 122°23'0 0.0
2018-Mar-09 11:30N 47°39' W 122°23'0 0.0
2018-Mar-09 11:00N 47°39' W 122°23'0 0.0
2018-Mar-09 10:30N 47°39' W 122°23'0 0.1
2018-Mar-09 09:51N 47°39' W 122°23'0 0.0
2018-Mar-09 09:30N 47°39' W 122°23'0 0.0
2018-Mar-09 08:54N 47°39' W 122°23'0 0.1
2018-Mar-09 08:30N 47°39' W 122°23'0 0.0
2018-Mar-09 08:00N 47°39' W 122°23'0 0.0
2018-Mar-09 07:30N 47°39' W 122°23'0 0.0
2018-Mar-09 07:00N 47°39' W 122°23'0 0.1
2018-Mar-09 06:30N 47°39' W 122°23'0 0.0
2018-Mar-09 06:00N 47°39' W 122°23'0 0.1
2018-Mar-09 05:30N 47°39' W 122°23'0 0.1
2018-Mar-09 05:00N 47°39' W 122°23'0 0.1
2018-Mar-09 04:30N 47°39' W 122°23'0 0.1
2018-Mar-09 04:00N 47°39' W 122°23'0 0.1
2018-Mar-09 03:30N 47°39' W 122°23'0 0.0
2018-Mar-09 03:00N 47°39' W 122°23'0 0.0
2018-Mar-09 02:30N 47°39' W 122°23'0 0.0
2018-Mar-09 02:00N 47°39' W 122°23'0 0.0
2018-Mar-09 01:30N 47°39' W 122°23'0 0.2
2018-Mar-09 00:58N 47°39' W 122°23'0 0.0
2018-Mar-09 00:28N 47°39' W 122°23'0 0.0
2018-Mar-08 23:58N 47°39' W 122°23'0 0.0
2018-Mar-08 23:28N 47°39' W 122°23'0 0.0
2018-Mar-08 22:58N 47°39' W 122°23'0 0.0
2018-Mar-08 22:28N 47°39' W 122°23'0 0.0
2018-Mar-08 21:58N 47°39' W 122°23'0 0.0
2018-Mar-08 21:28N 47°39' W 122°23'0 0.0
2018-Mar-08 20:58N 47°39' W 122°23'0 0.0
2018-Mar-08 20:28N 47°39' W 122°23'0 0.0
2018-Mar-07 22:00N 47°39' W 122°23'0 0.0
2018-Mar-07 21:30N 47°39' W 122°23'0 0.0
2018-Mar-07 21:00N 47°39' W 122°23'0 0.1
2018-Mar-07 20:30N 47°39' W 122°23'0 0.0
2018-Mar-07 20:00N 47°39' W 122°23'0 0.1
2018-Mar-07 19:30N 47°39' W 122°23'0 0.1
2018-Mar-07 19:00N 47°39' W 122°23'0 0.1
2018-Mar-07 18:30N 47°39' W 122°23'0 0.0
2018-Mar-07 17:57N 47°39' W 122°23'0 0.1
2018-Mar-07 17:30N 47°39' W 122°23'0 0.1
2018-Mar-07 17:00N 47°39' W 122°23'0 0.0
2018-Mar-07 16:27N 47°39' W 122°23'0 0.0
2018-Mar-07 16:00N 47°39' W 122°23'  
Track history (hours):
 
Tides and Currents Weather Stations Pressure Air Temp Water Temp Dewpoint Dewpoint Depression Visibility Wind Speed Wind Dir Waves Ship Positions

F/V Chelsea Dawn

Owner: YOUNG, MARK N, SITKA, AK. More information available from US FCC via Universal Licensing System and Coast Guard Vessel Documentation Center.

Last reported at 2018-Mar-17 15:48 UTC. Time now 2018-Jun-22 20:35 UTC.
Position N 54°19' W 130°55'.
Warning: this ship's position is months out of date.

Length 15 m.

Type: Fishing. MMSI: 367076240.

Date/timePositionNaut miles runAvg speedWind from/ knotsBaromVisibWave heightAir tempDewpointWater temp
2018-Mar-17 15:48N 54°19' W 130°55'3 9.1
2018-Mar-17 15:30N 54°17' W 130°50'4 8.9
2018-Mar-17 15:00N 54°15' W 130°44'4 8.8
2018-Mar-17 14:30N 54°12' W 130°38'4 8.9
2018-Mar-17 14:00N 54°10' W 130°32'4 9.0
2018-Mar-17 13:30N 54°08' W 130°25'5 9.1
2018-Mar-17 13:00N 54°05' W 130°19'4 8.8
2018-Mar-17 12:30N 54°02' W 130°14'4 8.6
2018-Mar-17 12:00N 53°57' W 130°12'4 8.3
2018-Mar-17 11:30N 53°54' W 130°08'131 7.7
2018-Mar-16 18:29N 52°05' W 128°06'9 6.6
2018-Mar-16 17:08N 51°59' W 127°56'1 8.9
2018-Mar-16 16:59N 51°58' W 127°56'5 8.9
2018-Mar-16 16:28N 51°53' W 127°57'4 8.8
2018-Mar-16 16:00N 51°49' W 127°57'5 8.8
2018-Mar-16 15:29N 51°44' W 127°57'4 9.0
2018-Mar-16 15:00N 51°40' W 127°55'4 8.9
2018-Mar-16 14:30N 51°36' W 127°54'29 8.5
2018-Mar-16 11:07N 51°07' W 127°47'2 9.1
2018-Mar-16 10:57N 51°06' W 127°45'8 8.9
2018-Mar-16 10:04N 51°01' W 127°36'1 8.6
2018-Mar-16 10:00N 51°01' W 127°35'4 8.6
2018-Mar-16 09:30N 50°58' W 127°30'4 8.4
2018-Mar-16 08:59N 50°55' W 127°25'4 8.3
2018-Mar-16 08:30N 50°53' W 127°19'5 8.3
2018-Mar-16 07:56N 50°50' W 127°13'79 8.4
2018-Mar-15 22:37N 50°14' W 125°23'1 8.4
2018-Mar-15 22:29N 50°13' W 125°23'4 8.2
2018-Mar-15 22:00N 50°09' W 125°22'2 3.5
2018-Mar-15 21:29N 50°08' W 125°21'2 3.6
2018-Mar-15 21:00N 50°07' W 125°19'3 5.2
2018-Mar-15 20:30N 50°05' W 125°16'2 4.6
2018-Mar-15 20:00N 50°03' W 125°14'3 6.2
2018-Mar-15 19:27N 49°60' W 125°12'5 8.8
2018-Mar-15 18:54N 49°56' W 125°07'4 8.8
2018-Mar-15 18:25N 49°53' W 125°02'3 6.4
2018-Mar-15 17:59N 49°51' W 124°59'4 8.6
2018-Mar-15 17:30N 49°48' W 124°55'5 9.3
2018-Mar-15 16:58N 49°45' W 124°49'73 8.8
2018-Mar-15 08:42N 48°54' W 123°28'2 9.4
2018-Mar-15 08:30N 48°53' W 123°26'5 9.2
2018-Mar-15 07:59N 48°50' W 123°21'5 9.7
2018-Mar-15 07:28N 48°45' W 123°19'5 9.4
2018-Mar-15 06:59N 48°41' W 123°16'11 7.6
2018-Mar-15 05:31N 48°31' W 123°10'2 6.5
2018-Mar-15 05:10N 48°29' W 123°08'40 9.6
2018-Mar-15 00:59N 47°57' W 122°32'4 9.2
2018-Mar-15 00:30N 47°53' W 122°28'5 9.4
2018-Mar-15 00:00N 47°48' W 122°27'5 9.5
2018-Mar-14 23:30N 47°44' W 122°26'4 7.9
2018-Mar-14 23:00N 47°40' W 122°24'1 1.5
2018-Mar-14 22:30N 47°39' W 122°23'0 0.0
2018-Mar-14 22:00N 47°39' W 122°23'0 0.0
2018-Mar-14 21:30N 47°39' W 122°23'0 0.0
2018-Mar-14 20:59N 47°39' W 122°23'0 0.0
2018-Mar-14 20:29N 47°39' W 122°23'0 0.0
2018-Mar-14 20:00N 47°39' W 122°23'0 0.0
2018-Mar-14 19:30N 47°39' W 122°23'0 0.0
2018-Mar-14 19:00N 47°39' W 122°23'0 0.0
2018-Mar-14 18:29N 47°39' W 122°23'0 0.0
2018-Mar-14 18:00N 47°39' W 122°23'0 0.0
2018-Mar-14 17:30N 47°39' W 122°23'0 0.0
2018-Mar-14 16:59N 47°39' W 122°23'0 0.0
2018-Mar-14 16:30N 47°39' W 122°23'0 0.0
2018-Mar-14 15:56N 47°39' W 122°23'0 0.0
2018-Mar-14 15:29N 47°39' W 122°23'0 0.0
2018-Mar-14 15:00N 47°39' W 122°23'0 0.0
2018-Mar-14 14:29N 47°39' W 122°23'0 0.0
2018-Mar-14 14:00N 47°39' W 122°23'0 0.0
2018-Mar-14 13:30N 47°39' W 122°23'0 0.0
2018-Mar-14 12:59N 47°39' W 122°23'0 0.0
2018-Mar-14 12:29N 47°39' W 122°23'0 0.0
2018-Mar-14 11:57N 47°39' W 122°23'0 0.0
2018-Mar-14 11:30N 47°39' W 122°23'0 0.0
2018-Mar-14 10:56N 47°39' W 122°23'0 0.0
2018-Mar-14 10:30N 47°39' W 122°23'0 0.0
2018-Mar-14 09:59N 47°39' W 122°23'0 0.0
2018-Mar-14 09:29N 47°39' W 122°23'0 0.0
2018-Mar-14 08:53N 47°39' W 122°23'0 0.0
2018-Mar-14 08:30N 47°39' W 122°23'0 0.0
2018-Mar-14 08:00N 47°39' W 122°23'0 0.0
2018-Mar-14 07:29N 47°39' W 122°23'0 0.0
2018-Mar-14 06:57N 47°39' W 122°23'0 0.0
2018-Mar-14 06:27N 47°39' W 122°23'0 0.0
2018-Mar-14 06:00N 47°39' W 122°23'0 0.0
2018-Mar-14 05:29N 47°39' W 122°23'0 0.0
2018-Mar-14 05:00N 47°39' W 122°23'0 0.0
2018-Mar-14 04:30N 47°39' W 122°23'0 0.0
2018-Mar-14 04:00N 47°39' W 122°23'0 0.0
2018-Mar-14 03:30N 47°39' W 122°23'0 0.0
2018-Mar-14 03:00N 47°39' W 122°23'0 0.0
2018-Mar-14 02:29N 47°39' W 122°23'0 0.0
2018-Mar-14 01:59N 47°39' W 122°23'0 0.0
2018-Mar-14 01:30N 47°39' W 122°23'0 0.0
2018-Mar-14 01:00N 47°39' W 122°23'0 0.0
2018-Mar-14 00:30N 47°39' W 122°23'0 0.0
2018-Mar-14 00:00N 47°39' W 122°23'0 0.0
2018-Mar-13 23:30N 47°39' W 122°23'0 0.0
2018-Mar-13 23:00N 47°39' W 122°23'0 0.0
2018-Mar-13 22:30N 47°39' W 122°23'0 0.0
2018-Mar-13 22:00N 47°39' W 122°23'0 0.0
2018-Mar-13 21:30N 47°39' W 122°23'0 0.0
2018-Mar-13 20:57N 47°39' W 122°23'0 0.0
2018-Mar-13 20:29N 47°39' W 122°23'0 0.0
2018-Mar-13 20:00N 47°39' W 122°23'0 0.0
2018-Mar-13 19:30N 47°39' W 122°23'0 0.0
2018-Mar-13 18:59N 47°39' W 122°23'0 0.0
2018-Mar-13 18:30N 47°39' W 122°23'0 0.0
2018-Mar-13 18:00N 47°39' W 122°23'0 0.0
2018-Mar-13 17:29N 47°39' W 122°23'0 0.0
2018-Mar-13 17:00N 47°39' W 122°23'0 0.0
2018-Mar-13 16:30N 47°39' W 122°23'0 0.0
2018-Mar-13 16:00N 47°39' W 122°23'0 0.0
2018-Mar-13 15:30N 47°39' W 122°23'0 0.0
2018-Mar-13 14:59N 47°39' W 122°23'0 0.0
2018-Mar-13 14:29N 47°39' W 122°23'0 0.0
2018-Mar-13 13:59N 47°39' W 122°23'0 0.0
2018-Mar-13 13:30N 47°39' W 122°23'0 0.0
2018-Mar-13 12:57N 47°39' W 122°23'0 0.0
2018-Mar-13 12:30N 47°39' W 122°23'0 0.0
2018-Mar-13 12:00N 47°39' W 122°23'0 0.0
2018-Mar-13 11:30N 47°39' W 122°23'0 0.0
2018-Mar-13 11:00N 47°39' W 122°23'0 0.0
2018-Mar-13 10:29N 47°39' W 122°23'0 0.0
2018-Mar-13 09:59N 47°39' W 122°23'0 0.0
2018-Mar-13 09:30N 47°39' W 122°23'0 0.0
2018-Mar-13 09:00N 47°39' W 122°23'0 0.0
2018-Mar-13 08:30N 47°39' W 122°23'0 0.0
2018-Mar-13 07:56N 47°39' W 122°23'0 0.0
2018-Mar-13 07:30N 47°39' W 122°23'0 0.0
2018-Mar-13 06:56N 47°39' W 122°23'0 0.0
2018-Mar-13 06:30N 47°39' W 122°23'0 0.0
2018-Mar-13 05:59N 47°39' W 122°23'0 0.0
2018-Mar-13 05:29N 47°39' W 122°23'0 0.0
2018-Mar-13 04:56N 47°39' W 122°23'0 0.0
2018-Mar-13 04:30N 47°39' W 122°23'0 0.0
2018-Mar-13 04:00N 47°39' W 122°23'0 0.0
2018-Mar-13 03:30N 47°39' W 122°23'0 0.0
2018-Mar-13 03:00N 47°39' W 122°23'0 0.0
2018-Mar-13 02:29N 47°39' W 122°23'0 0.0
2018-Mar-13 02:00N 47°39' W 122°23'0 0.0
2018-Mar-13 01:29N 47°39' W 122°23'0 0.0
2018-Mar-13 01:00N 47°39' W 122°23'0 0.0
2018-Mar-13 00:30N 47°39' W 122°23'0 0.0
2018-Mar-13 00:00N 47°39' W 122°23'0 0.0
2018-Mar-12 23:29N 47°39' W 122°23'0 0.0
2018-Mar-12 23:00N 47°39' W 122°23'0 0.0
2018-Mar-12 22:30N 47°39' W 122°23'0 0.0
2018-Mar-12 22:00N 47°39' W 122°23'0 0.0
2018-Mar-12 21:30N 47°39' W 122°23'0 0.0
2018-Mar-12 21:00N 47°39' W 122°23'0 0.0
2018-Mar-12 20:30N 47°39' W 122°23'0 0.0
2018-Mar-12 19:59N 47°39' W 122°23'0 0.0
2018-Mar-12 19:30N 47°39' W 122°23'0 0.0
2018-Mar-12 19:00N 47°39' W 122°23'0 0.0
2018-Mar-12 18:26N 47°39' W 122°23'0 0.0
2018-Mar-12 17:56N 47°39' W 122°23'0 0.0
2018-Mar-12 17:29N 47°39' W 122°23'0 0.0
2018-Mar-12 16:59N 47°39' W 122°23'0 0.0
2018-Mar-12 16:29N 47°39' W 122°23'0 0.0
2018-Mar-12 16:00N 47°39' W 122°23'0 0.2
2018-Mar-12 15:30N 47°39' W 122°23'0 0.0
2018-Mar-12 15:00N 47°39' W 122°23'0 0.0
2018-Mar-12 14:30N 47°39' W 122°23'0 0.0
2018-Mar-12 14:00N 47°39' W 122°23'0 0.0
2018-Mar-12 13:30N 47°39' W 122°23'0 0.0
2018-Mar-12 13:00N 47°39' W 122°23'0 0.0
2018-Mar-12 12:30N 47°39' W 122°23'0 0.0
2018-Mar-12 12:00N 47°39' W 122°23'0 0.0
2018-Mar-12 11:30N 47°39' W 122°23'0 0.0
2018-Mar-12 11:00N 47°39' W 122°23'0 0.1
2018-Mar-12 10:27N 47°39' W 122°23'0 0.1
2018-Mar-12 10:00N 47°39' W 122°23'0 0.0
2018-Mar-12 09:30N 47°39' W 122°23'0 0.1
2018-Mar-12 09:00N 47°39' W 122°23'0 0.0
2018-Mar-12 08:30N 47°39' W 122°23'0 0.0
2018-Mar-12 08:00N 47°39' W 122°23'0 0.0
2018-Mar-12 07:30N 47°39' W 122°23'0 0.1
2018-Mar-12 07:00N 47°39' W 122°23'0 0.1
2018-Mar-12 06:30N 47°39' W 122°23'0 0.0
2018-Mar-12 06:00N 47°39' W 122°23'0 0.1
2018-Mar-12 05:30N 47°39' W 122°23'0 0.1
2018-Mar-12 05:00N 47°39' W 122°23'0 0.0
2018-Mar-12 04:30N 47°39' W 122°23'0 0.1
2018-Mar-12 04:00N 47°39' W 122°23'0 0.0
2018-Mar-12 03:27N 47°39' W 122°23'0 0.0
2018-Mar-12 03:00N 47°39' W 122°23'0 0.0
2018-Mar-12 02:30N 47°39' W 122°23'0 0.1
2018-Mar-12 02:00N 47°39' W 122°23'0 0.1
2018-Mar-12 01:30N 47°39' W 122°23'0 0.0
2018-Mar-12 01:00N 47°39' W 122°23'0 0.0
2018-Mar-12 00:30N 47°39' W 122°23'0 0.0
2018-Mar-12 00:00N 47°39' W 122°23'0 0.1
2018-Mar-11 23:30N 47°39' W 122°23'0 0.0
2018-Mar-11 23:00N 47°39' W 122°23'0 0.1
2018-Mar-11 22:30N 47°39' W 122°23'0 0.0
2018-Mar-11 22:00N 47°39' W 122°23'0 0.1
2018-Mar-11 21:30N 47°39' W 122°23'0 0.1
2018-Mar-11 21:00N 47°39' W 122°23'0 0.1
2018-Mar-11 20:30N 47°39' W 122°23'0 0.0
2018-Mar-11 20:00N 47°39' W 122°23'0 0.1
2018-Mar-11 19:30N 47°39' W 122°23'0 0.1
2018-Mar-11 19:00N 47°39' W 122°23'0 0.1
2018-Mar-11 18:30N 47°39' W 122°23'0 0.1
2018-Mar-11 18:00N 47°39' W 122°23'0 0.1
2018-Mar-11 17:30N 47°39' W 122°23'0 0.0
2018-Mar-11 17:00N 47°39' W 122°23'0 0.1
2018-Mar-11 16:30N 47°39' W 122°23'0 0.0
2018-Mar-11 16:00N 47°39' W 122°23'0 0.1
2018-Mar-11 15:27N 47°39' W 122°23'0 0.0
2018-Mar-11 15:00N 47°39' W 122°23'0 0.0
2018-Mar-11 14:30N 47°39' W 122°23'0 0.0
2018-Mar-11 13:57N 47°39' W 122°23'0 0.0
2018-Mar-11 13:27N 47°39' W 122°23'0 0.1
2018-Mar-11 13:00N 47°39' W 122°23'0 0.1
2018-Mar-11 12:30N 47°39' W 122°23'0 0.0
2018-Mar-11 12:00N 47°39' W 122°23'0 0.0
2018-Mar-11 11:27N 47°39' W 122°23'0 0.0
2018-Mar-11 11:00N 47°39' W 122°23'0 0.0
2018-Mar-11 10:30N 47°39' W 122°23'0 0.0
2018-Mar-11 10:00N 47°39' W 122°23'0 0.0
2018-Mar-11 09:30N 47°39' W 122°23'0 0.1
2018-Mar-11 09:00N 47°39' W 122°23'0 0.0
2018-Mar-11 08:30N 47°39' W 122°23'0 0.1
2018-Mar-11 07:54N 47°39' W 122°23'0 0.0
2018-Mar-11 07:27N 47°39' W 122°23'0 0.0
2018-Mar-11 07:00N 47°39' W 122°23'0 0.1
2018-Mar-11 06:27N 47°39' W 122°23'0 0.1
2018-Mar-11 05:57N 47°39' W 122°23'0 0.1
2018-Mar-11 05:30N 47°39' W 122°23'0 0.1
2018-Mar-11 05:00N 47°39' W 122°23'0 0.0
2018-Mar-11 04:30N 47°39' W 122°23'0 0.0
2018-Mar-11 04:00N 47°39' W 122°23'0 0.0
2018-Mar-11 03:30N 47°39' W 122°23'0 0.1
2018-Mar-11 03:00N 47°39' W 122°23'0 0.1
2018-Mar-11 02:30N 47°39' W 122°23'0 0.0
2018-Mar-11 02:00N 47°39' W 122°23'0 0.0
2018-Mar-11 01:30N 47°39' W 122°23'0 0.0
2018-Mar-11 00:57N 47°39' W 122°23'0 0.0
2018-Mar-11 00:30N 47°39' W 122°23'0 0.0
2018-Mar-11 00:00N 47°39' W 122°23'0 0.1
2018-Mar-10 23:27N 47°39' W 122°23'0 0.0
2018-Mar-10 23:00N 47°39' W 122°23'0 0.1
2018-Mar-10 22:30N 47°39' W 122°23'0 0.0
2018-Mar-10 22:00N 47°39' W 122°23'0 0.1
2018-Mar-10 21:30N 47°39' W 122°23'0 0.0
2018-Mar-10 21:00N 47°39' W 122°23'0 0.1
2018-Mar-10 20:30N 47°39' W 122°23'0 0.1
2018-Mar-10 20:00N 47°39' W 122°23'0 0.1
2018-Mar-10 19:30N 47°39' W 122°23'0 0.0
2018-Mar-10 18:57N 47°39' W 122°23'0 0.0
2018-Mar-10 18:24N 47°39' W 122°23'0 0.0
2018-Mar-10 18:00N 47°39' W 122°23'0 0.1
2018-Mar-10 17:30N 47°39' W 122°23'0 0.1
2018-Mar-10 16:54N 47°39' W 122°23'0 0.0
2018-Mar-10 16:30N 47°39' W 122°23'0 0.0
2018-Mar-10 16:00N 47°39' W 122°23'0 0.1
2018-Mar-10 15:27N 47°39' W 122°23'0 0.1
2018-Mar-10 15:00N 47°39' W 122°23'0 0.0
2018-Mar-10 14:30N 47°39' W 122°23'0 0.0
2018-Mar-10 14:00N 47°39' W 122°23'0 0.0
2018-Mar-10 13:27N 47°39' W 122°23'0 0.1
2018-Mar-10 13:00N 47°39' W 122°23'0 0.0
2018-Mar-10 12:27N 47°39' W 122°23'0 0.1
2018-Mar-10 12:00N 47°39' W 122°23'0 0.0
2018-Mar-10 11:30N 47°39' W 122°23'0 0.1
2018-Mar-10 11:00N 47°39' W 122°23'0 0.1
2018-Mar-10 10:30N 47°39' W 122°23'0 0.0
2018-Mar-10 10:00N 47°39' W 122°23'0 0.1
2018-Mar-10 09:30N 47°39' W 122°23'0 0.0
2018-Mar-10 09:00N 47°39' W 122°23'0 0.0
2018-Mar-10 08:30N 47°39' W 122°23'0 0.1
2018-Mar-10 08:00N 47°39' W 122°23'0 0.0
2018-Mar-10 07:30N 47°39' W 122°23'0 0.0
2018-Mar-10 07:00N 47°39' W 122°23'0 0.1
2018-Mar-10 06:30N 47°39' W 122°23'0 0.1
2018-Mar-10 06:00N 47°39' W 122°23'0 0.1
2018-Mar-10 05:30N 47°39' W 122°23'0 0.1
2018-Mar-10 05:00N 47°39' W 122°23'0 0.0
2018-Mar-10 04:30N 47°39' W 122°23'0 0.1
2018-Mar-10 04:00N 47°39' W 122°23'0 0.1
2018-Mar-10 03:30N 47°39' W 122°23'0 0.0
2018-Mar-10 03:00N 47°39' W 122°23'0 0.0
2018-Mar-10 02:27N 47°39' W 122°23'0 0.0
2018-Mar-10 02:00N 47°39' W 122°23'0 0.0
2018-Mar-10 01:30N 47°39' W 122°23'0 0.0
2018-Mar-10 01:00N 47°39' W 122°23'0 0.0
2018-Mar-10 00:30N 47°39' W 122°23'0 0.1
2018-Mar-10 00:00N 47°39' W 122°23'0 0.1
2018-Mar-09 23:30N 47°39' W 122°23'0 0.1
2018-Mar-09 23:00N 47°39' W 122°23'0 0.1
2018-Mar-09 22:30N 47°39' W 122°23'0 0.0
2018-Mar-09 22:00N 47°39' W 122°23'0 0.0
2018-Mar-09 21:30N 47°39' W 122°23'0 0.1
2018-Mar-09 21:00N 47°39' W 122°23'0 0.0
2018-Mar-09 20:30N 47°39' W 122°23'0 0.1
2018-Mar-09 20:00N 47°39' W 122°23'0 0.0
2018-Mar-09 19:30N 47°39' W 122°23'0 0.0
2018-Mar-09 19:00N 47°39' W 122°23'0 0.1
2018-Mar-09 18:30N 47°39' W 122°23'0 0.0
2018-Mar-09 18:00N 47°39' W 122°23'0 0.1
2018-Mar-09 17:27N 47°39' W 122°23'0 0.0
2018-Mar-09 17:00N 47°39' W 122°23'0 0.1
2018-Mar-09 16:30N 47°39' W 122°23'0 0.1
2018-Mar-09 16:00N 47°39' W 122°23'0 0.0
2018-Mar-09 15:30N 47°39' W 122°23'0 0.0
2018-Mar-09 14:57N 47°39' W 122°23'0 0.0
2018-Mar-09 14:30N 47°39' W 122°23'0 0.0
2018-Mar-09 13:57N 47°39' W 122°23'0 0.0
2018-Mar-09 13:30N 47°39' W 122°23'0 0.0
2018-Mar-09 13:00N 47°39' W 122°23'0 0.0
2018-Mar-09 12:30N 47°39' W 122°23'0 0.0
2018-Mar-09 12:00N 47°39' W 122°23'0 0.0
2018-Mar-09 11:30N 47°39' W 122°23'0 0.0
2018-Mar-09 11:00N 47°39' W 122°23'0 0.0
2018-Mar-09 10:30N 47°39' W 122°23'0 0.1
2018-Mar-09 09:51N 47°39' W 122°23'0 0.0
2018-Mar-09 09:30N 47°39' W 122°23'0 0.0
2018-Mar-09 08:54N 47°39' W 122°23'0 0.1
2018-Mar-09 08:30N 47°39' W 122°23'0 0.0
2018-Mar-09 08:00N 47°39' W 122°23'0 0.0
2018-Mar-09 07:30N 47°39' W 122°23'0 0.0
2018-Mar-09 07:00N 47°39' W 122°23'0 0.1
2018-Mar-09 06:30N 47°39' W 122°23'0 0.0
2018-Mar-09 06:00N 47°39' W 122°23'0 0.1
2018-Mar-09 05:30N 47°39' W 122°23'0 0.1
2018-Mar-09 05:00N 47°39' W 122°23'0 0.1
2018-Mar-09 04:30N 47°39' W 122°23'0 0.1
2018-Mar-09 04:00N 47°39' W 122°23'0 0.1
2018-Mar-09 03:30N 47°39' W 122°23'0 0.0
2018-Mar-09 03:00N 47°39' W 122°23'0 0.0
2018-Mar-09 02:30N 47°39' W 122°23'0 0.0
2018-Mar-09 02:00N 47°39' W 122°23'0 0.0
2018-Mar-09 01:30N 47°39' W 122°23'0 0.2
2018-Mar-09 00:58N 47°39' W 122°23'0 0.0
2018-Mar-09 00:28N 47°39' W 122°23'0 0.0
2018-Mar-08 23:58N 47°39' W 122°23'0 0.0
2018-Mar-08 23:28N 47°39' W 122°23'0 0.0
2018-Mar-08 22:58N 47°39' W 122°23'0 0.0
2018-Mar-08 22:28N 47°39' W 122°23'0 0.0
2018-Mar-08 21:58N 47°39' W 122°23'0 0.0
2018-Mar-08 21:28N 47°39' W 122°23'0 0.0
2018-Mar-08 20:58N 47°39' W 122°23'0 0.0
2018-Mar-08 20:28N 47°39' W 122°23'0 0.0
2018-Mar-07 22:00N 47°39' W 122°23'0 0.0
2018-Mar-07 21:30N 47°39' W 122°23'0 0.0
2018-Mar-07 21:00N 47°39' W 122°23'0 0.1
2018-Mar-07 20:30N 47°39' W 122°23'0 0.0
2018-Mar-07 20:00N 47°39' W 122°23'0 0.1
2018-Mar-07 19:30N 47°39' W 122°23'0 0.1
2018-Mar-07 19:00N 47°39' W 122°23'0 0.1
2018-Mar-07 18:30N 47°39' W 122°23'0 0.0
2018-Mar-07 17:57N 47°39' W 122°23'0 0.1
2018-Mar-07 17:30N 47°39' W 122°23'0 0.1
2018-Mar-07 17:00N 47°39' W 122°23'0 0.0
2018-Mar-07 16:27N 47°39' W 122°23'0 0.0
2018-Mar-07 16:00N 47°39' W 122°23'  

Dump ship's entire track history